sensor_id;sensor_type;location;lat;lon;timestamp;temperature;humidity
25568;DHT22;13455;51.480;7.594;2022-12-11T00:01:10;1.60;99.90
25568;DHT22;13455;51.480;7.594;2022-12-11T00:03:37;1.30;99.90
25568;DHT22;13455;51.480;7.594;2022-12-11T00:06:07;1.50;99.90
25568;DHT22;13455;51.480;7.594;2022-12-11T00:08:33;1.50;99.90
25568;DHT22;13455;51.480;7.594;2022-12-11T00:10:59;1.50;99.90
25568;DHT22;13455;51.480;7.594;2022-12-11T00:13:25;1.50;99.90
25568;DHT22;13455;51.480;7.594;2022-12-11T00:15:51;1.50;99.90
25568;DHT22;13455;51.480;7.594;2022-12-11T00:18:16;1.50;99.90
25568;DHT22;13455;51.480;7.594;2022-12-11T00:20:42;1.40;99.90
25568;DHT22;13455;51.480;7.594;2022-12-11T00:23:08;1.60;99.90
25568;DHT22;13455;51.480;7.594;2022-12-11T00:28:01;1.30;99.90
25568;DHT22;13455;51.480;7.594;2022-12-11T00:30:26;1.50;99.90
25568;DHT22;13455;51.480;7.594;2022-12-11T00:32:52;1.60;99.90
25568;DHT22;13455;51.480;7.594;2022-12-11T00:37:43;1.70;99.90
25568;DHT22;13455;51.480;7.594;2022-12-11T00:40:09;1.50;99.90
25568;DHT22;13455;51.480;7.594;2022-12-11T00:42:35;1.40;99.90
25568;DHT22;13455;51.480;7.594;2022-12-11T00:45:01;1.40;99.90
25568;DHT22;13455;51.480;7.594;2022-12-11T00:47:27;1.40;99.90
25568;DHT22;13455;51.480;7.594;2022-12-11T00:49:52;1.40;99.90
25568;DHT22;13455;51.480;7.594;2022-12-11T00:52:18;1.40;99.90
25568;DHT22;13455;51.480;7.594;2022-12-11T00:54:44;1.60;99.90
25568;DHT22;13455;51.480;7.594;2022-12-11T00:57:09;1.40;99.90
25568;DHT22;13455;51.480;7.594;2022-12-11T00:59:35;1.50;99.90
25568;DHT22;13455;51.480;7.594;2022-12-11T01:02:01;1.30;99.90
25568;DHT22;13455;51.480;7.594;2022-12-11T01:04:26;1.30;99.90
25568;DHT22;13455;51.480;7.594;2022-12-11T01:06:52;1.50;99.90
25568;DHT22;13455;51.480;7.594;2022-12-11T01:16:54;1.10;99.90
25568;DHT22;13455;51.480;7.594;2022-12-11T01:19:20;1.10;99.90
25568;DHT22;13455;51.480;7.594;2022-12-11T01:21:46;1.30;99.90
25568;DHT22;13455;51.480;7.594;2022-12-11T01:24:11;1.50;99.90
25568;DHT22;13455;51.480;7.594;2022-12-11T01:26:37;1.60;99.90
25568;DHT22;13455;51.480;7.594;2022-12-11T01:29:02;1.20;99.90
25568;DHT22;13455;51.480;7.594;2022-12-11T01:31:28;1.10;99.90
25568;DHT22;13455;51.480;7.594;2022-12-11T01:33:54;1.40;99.90
25568;DHT22;13455;51.480;7.594;2022-12-11T01:36:21;1.10;99.90
25568;DHT22;13455;51.480;7.594;2022-12-11T01:38:48;1.20;99.90
25568;DHT22;13455;51.480;7.594;2022-12-11T01:41:15;1.20;99.90
25568;DHT22;13455;51.480;7.594;2022-12-11T01:46:30;1.20;99.90
25568;DHT22;13455;51.480;7.594;2022-12-11T01:48:56;1.20;99.90
25568;DHT22;13455;51.480;7.594;2022-12-11T01:51:23;1.30;99.90
25568;DHT22;13455;51.480;7.594;2022-12-11T01:53:53;1.60;99.90
25568;DHT22;13455;51.480;7.594;2022-12-11T01:56:20;1.30;99.90
25568;DHT22;13455;51.480;7.594;2022-12-11T01:58:49;1.30;99.90
25568;DHT22;13455;51.480;7.594;2022-12-11T02:01:27;1.00;99.90
25568;DHT22;13455;51.480;7.594;2022-12-11T02:03:54;1.10;99.90
25568;DHT22;13455;51.480;7.594;2022-12-11T02:06:34;1.60;99.90
25568;DHT22;13455;51.480;7.594;2022-12-11T02:17:16;1.20;99.90
25568;DHT22;13455;51.480;7.594;2022-12-11T02:28:24;1.20;99.90
25568;DHT22;13455;51.480;7.594;2022-12-11T02:30:59;1.20;99.90
25568;DHT22;13455;51.480;7.594;2022-12-11T02:36:09;1.20;99.90
25568;DHT22;13455;51.480;7.594;2022-12-11T02:38:38;1.30;99.90
25568;DHT22;13455;51.480;7.594;2022-12-11T02:41:06;0.90;99.90
25568;DHT22;13455;51.480;7.594;2022-12-11T02:43:33;1.20;99.90
25568;DHT22;13455;51.480;7.594;2022-12-11T02:45:59;1.30;99.90
25568;DHT22;13455;51.480;7.594;2022-12-11T02:48:27;1.20;99.90
25568;DHT22;13455;51.480;7.594;2022-12-11T02:50:57;1.40;99.90
25568;DHT22;13455;51.480;7.594;2022-12-11T02:53:27;1.20;99.90
25568;DHT22;13455;51.480;7.594;2022-12-11T02:56:00;1.30;99.90
25568;DHT22;13455;51.480;7.594;2022-12-11T02:58:29;1.30;99.90
25568;DHT22;13455;51.480;7.594;2022-12-11T03:00:56;1.20;99.90
25568;DHT22;13455;51.480;7.594;2022-12-11T03:05:48;1.20;99.90
25568;DHT22;13455;51.480;7.594;2022-12-11T03:08:14;1.20;99.90
25568;DHT22;13455;51.480;7.594;2022-12-11T03:10:42;1.20;99.90
25568;DHT22;13455;51.480;7.594;2022-12-11T03:13:07;1.20;99.90
25568;DHT22;13455;51.480;7.594;2022-12-11T03:18:33;1.20;99.90
25568;DHT22;13455;51.480;7.594;2022-12-11T03:21:07;1.10;99.90
25568;DHT22;13455;51.480;7.594;2022-12-11T03:23:47;0.60;99.90
25568;DHT22;13455;51.480;7.594;2022-12-11T03:26:14;1.20;99.90
25568;DHT22;13455;51.480;7.594;2022-12-11T03:28:46;1.10;99.90
25568;DHT22;13455;51.480;7.594;2022-12-11T03:32:23;1.20;99.90
25568;DHT22;13455;51.480;7.594;2022-12-11T03:34:28;1.20;99.90
25568;DHT22;13455;51.480;7.594;2022-12-11T03:36:55;1.10;99.90
25568;DHT22;13455;51.480;7.594;2022-12-11T03:39:30;1.20;99.90
25568;DHT22;13455;51.480;7.594;2022-12-11T03:42:02;1.30;99.90
25568;DHT22;13455;51.480;7.594;2022-12-11T03:44:30;1.20;99.90
25568;DHT22;13455;51.480;7.594;2022-12-11T03:46:59;1.20;99.90
25568;DHT22;13455;51.480;7.594;2022-12-11T03:49:29;1.10;99.90
25568;DHT22;13455;51.480;7.594;2022-12-11T03:51:58;1.30;99.90
25568;DHT22;13455;51.480;7.594;2022-12-11T03:54:25;1.20;99.90
25568;DHT22;13455;51.480;7.594;2022-12-11T03:56:54;1.30;99.90
25568;DHT22;13455;51.480;7.594;2022-12-11T03:59:20;1.40;99.90
25568;DHT22;13455;51.480;7.594;2022-12-11T04:01:46;1.40;99.90
25568;DHT22;13455;51.480;7.594;2022-12-11T04:04:11;1.50;99.90
25568;DHT22;13455;51.480;7.594;2022-12-11T04:06:37;1.50;99.90
25568;DHT22;13455;51.480;7.594;2022-12-11T04:09:03;1.50;99.90
25568;DHT22;13455;51.480;7.594;2022-12-11T04:11:28;1.50;99.90
25568;DHT22;13455;51.480;7.594;2022-12-11T04:14:12;1.40;99.90
25568;DHT22;13455;51.480;7.594;2022-12-11T04:16:58;1.40;99.90
25568;DHT22;13455;51.480;7.594;2022-12-11T04:19:24;1.40;99.90
25568;DHT22;13455;51.480;7.594;2022-12-11T04:22:11;1.40;99.90
25568;DHT22;13455;51.480;7.594;2022-12-11T04:24:55;1.40;99.90
25568;DHT22;13455;51.480;7.594;2022-12-11T04:27:21;1.50;99.90
25568;DHT22;13455;51.480;7.594;2022-12-11T04:30:08;1.40;99.90
25568;DHT22;13455;51.480;7.594;2022-12-11T04:32:34;1.30;99.90
25568;DHT22;13455;51.480;7.594;2022-12-11T04:34:59;1.60;99.90
25568;DHT22;13455;51.480;7.594;2022-12-11T04:37:26;1.40;99.90
25568;DHT22;13455;51.480;7.594;2022-12-11T04:39:52;1.50;99.90
25568;DHT22;13455;51.480;7.594;2022-12-11T04:42:18;1.40;99.90
25568;DHT22;13455;51.480;7.594;2022-12-11T04:44:43;1.60;99.90
25568;DHT22;13455;51.480;7.594;2022-12-11T04:47:09;1.60;99.90
25568;DHT22;13455;51.480;7.594;2022-12-11T04:49:34;1.50;99.90
25568;DHT22;13455;51.480;7.594;2022-12-11T04:52:00;1.60;99.90
25568;DHT22;13455;51.480;7.594;2022-12-11T04:54:28;1.60;99.90
25568;DHT22;13455;51.480;7.594;2022-12-11T04:56:54;1.50;99.90
25568;DHT22;13455;51.480;7.594;2022-12-11T04:59:21;1.70;99.90
25568;DHT22;13455;51.480;7.594;2022-12-11T05:04:15;1.50;99.90
25568;DHT22;13455;51.480;7.594;2022-12-11T05:06:41;1.50;99.90
25568;DHT22;13455;51.480;7.594;2022-12-11T05:09:10;1.80;99.90
25568;DHT22;13455;51.480;7.594;2022-12-11T05:14:02;1.50;99.90
25568;DHT22;13455;51.480;7.594;2022-12-11T05:16:28;1.30;99.90
25568;DHT22;13455;51.480;7.594;2022-12-11T05:18:53;1.80;99.90
25568;DHT22;13455;51.480;7.594;2022-12-11T05:23:45;1.40;99.90
25568;DHT22;13455;51.480;7.594;2022-12-11T05:26:15;0.80;99.90
25568;DHT22;13455;51.480;7.594;2022-12-11T05:28:42;1.50;99.90
25568;DHT22;13455;51.480;7.594;2022-12-11T05:31:19;1.40;99.90
25568;DHT22;13455;51.480;7.594;2022-12-11T05:33:46;1.60;99.90
25568;DHT22;13455;51.480;7.594;2022-12-11T05:36:18;1.50;99.90
25568;DHT22;13455;51.480;7.594;2022-12-11T05:38:44;1.60;99.90
25568;DHT22;13455;51.480;7.594;2022-12-11T05:41:13;1.70;99.90
25568;DHT22;13455;51.480;7.594;2022-12-11T05:46:08;1.60;99.90
25568;DHT22;13455;51.480;7.594;2022-12-11T05:48:36;1.30;99.90
25568;DHT22;13455;51.480;7.594;2022-12-11T05:51:02;1.20;99.90
25568;DHT22;13455;51.480;7.594;2022-12-11T05:53:28;1.50;99.90
25568;DHT22;13455;51.480;7.594;2022-12-11T05:55:59;1.60;99.90
25568;DHT22;13455;51.480;7.594;2022-12-11T06:00:51;1.40;99.90
25568;DHT22;13455;51.480;7.594;2022-12-11T06:03:16;1.60;99.90
25568;DHT22;13455;51.480;7.594;2022-12-11T06:05:42;1.40;99.90
25568;DHT22;13455;51.480;7.594;2022-12-11T06:08:08;1.60;99.90
25568;DHT22;13455;51.480;7.594;2022-12-11T06:10:34;1.50;99.90
25568;DHT22;13455;51.480;7.594;2022-12-11T06:12:59;1.60;99.90
25568;DHT22;13455;51.480;7.594;2022-12-11T06:15:26;1.60;99.90
25568;DHT22;13455;51.480;7.594;2022-12-11T06:17:51;1.50;99.90
25568;DHT22;13455;51.480;7.594;2022-12-11T06:20:17;1.50;99.90
25568;DHT22;13455;51.480;7.594;2022-12-11T06:25:09;1.50;99.90
25568;DHT22;13455;51.480;7.594;2022-12-11T06:27:34;1.70;99.90
25568;DHT22;13455;51.480;7.594;2022-12-11T06:30:00;1.60;99.90
25568;DHT22;13455;51.480;7.594;2022-12-11T06:32:26;1.50;99.90
25568;DHT22;13455;51.480;7.594;2022-12-11T06:34:52;1.60;99.90
25568;DHT22;13455;51.480;7.594;2022-12-11T06:37:17;1.70;99.90
25568;DHT22;13455;51.480;7.594;2022-12-11T06:39:43;1.60;99.90
25568;DHT22;13455;51.480;7.594;2022-12-11T06:42:09;1.60;99.90
25568;DHT22;13455;51.480;7.594;2022-12-11T06:44:34;1.50;99.90
25568;DHT22;13455;51.480;7.594;2022-12-11T06:47:00;1.70;99.90
25568;DHT22;13455;51.480;7.594;2022-12-11T06:49:25;1.60;99.90
25568;DHT22;13455;51.480;7.594;2022-12-11T06:54:18;1.50;99.90
25568;DHT22;13455;51.480;7.594;2022-12-11T06:56:43;1.80;99.90
25568;DHT22;13455;51.480;7.594;2022-12-11T06:59:12;1.60;99.90
25568;DHT22;13455;51.480;7.594;2022-12-11T07:01:38;1.60;99.90
25568;DHT22;13455;51.480;7.594;2022-12-11T07:04:05;1.70;99.90
25568;DHT22;13455;51.480;7.594;2022-12-11T07:06:30;1.60;99.90
25568;DHT22;13455;51.480;7.594;2022-12-11T07:08:56;1.60;99.90
25568;DHT22;13455;51.480;7.594;2022-12-11T07:11:22;1.60;99.90
25568;DHT22;13455;51.480;7.594;2022-12-11T07:13:48;1.50;99.90
25568;DHT22;13455;51.480;7.594;2022-12-11T07:18:42;1.60;99.90
25568;DHT22;13455;51.480;7.594;2022-12-11T07:21:12;1.60;99.90
25568;DHT22;13455;51.480;7.594;2022-12-11T07:26:07;1.60;99.90
25568;DHT22;13455;51.480;7.594;2022-12-11T07:28:33;1.60;99.90
25568;DHT22;13455;51.480;7.594;2022-12-11T07:31:07;1.50;99.90
25568;DHT22;13455;51.480;7.594;2022-12-11T07:33:33;1.50;99.90
25568;DHT22;13455;51.480;7.594;2022-12-11T07:36:04;2.00;99.90
25568;DHT22;13455;51.480;7.594;2022-12-11T07:38:30;1.70;99.90
25568;DHT22;13455;51.480;7.594;2022-12-11T07:40:59;1.50;99.90
25568;DHT22;13455;51.480;7.594;2022-12-11T07:43:24;1.60;99.90
25568;DHT22;13455;51.480;7.594;2022-12-11T07:45:50;1.60;99.90
25568;DHT22;13455;51.480;7.594;2022-12-11T07:48:15;1.50;99.90
25568;DHT22;13455;51.480;7.594;2022-12-11T07:50:41;1.50;99.90
25568;DHT22;13455;51.480;7.594;2022-12-11T07:53:07;1.90;99.90
25568;DHT22;13455;51.480;7.594;2022-12-11T07:55:32;1.50;99.90
25568;DHT22;13455;51.480;7.594;2022-12-11T07:57:58;1.60;99.90
25568;DHT22;13455;51.480;7.594;2022-12-11T08:00:23;1.50;99.90
25568;DHT22;13455;51.480;7.594;2022-12-11T08:02:49;1.60;99.90
25568;DHT22;13455;51.480;7.594;2022-12-11T08:05:14;1.60;99.90
25568;DHT22;13455;51.480;7.594;2022-12-11T08:07:40;1.60;99.90
25568;DHT22;13455;51.480;7.594;2022-12-11T08:10:06;1.80;99.90
25568;DHT22;13455;51.480;7.594;2022-12-11T08:12:32;2.30;99.90
25568;DHT22;13455;51.480;7.594;2022-12-11T08:14:57;1.90;99.90
25568;DHT22;13455;51.480;7.594;2022-12-11T08:17:23;1.60;99.90
25568;DHT22;13455;51.480;7.594;2022-12-11T08:19:48;1.70;99.90
25568;DHT22;13455;51.480;7.594;2022-12-11T08:22:14;2.20;99.90
25568;DHT22;13455;51.480;7.594;2022-12-11T08:24:39;1.60;99.90
25568;DHT22;13455;51.480;7.594;2022-12-11T08:27:05;1.80;99.90
25568;DHT22;13455;51.480;7.594;2022-12-11T08:29:31;1.80;99.90
25568;DHT22;13455;51.480;7.594;2022-12-11T08:31:57;1.70;99.90
25568;DHT22;13455;51.480;7.594;2022-12-11T08:34:22;1.70;99.90
25568;DHT22;13455;51.480;7.594;2022-12-11T08:36:48;1.80;99.90
25568;DHT22;13455;51.480;7.594;2022-12-11T08:39:13;1.70;99.90
25568;DHT22;13455;51.480;7.594;2022-12-11T08:41:39;1.80;99.90
25568;DHT22;13455;51.480;7.594;2022-12-11T08:44:10;1.70;99.90
25568;DHT22;13455;51.480;7.594;2022-12-11T08:46:36;1.80;99.90
25568;DHT22;13455;51.480;7.594;2022-12-11T08:49:03;1.70;99.90
25568;DHT22;13455;51.480;7.594;2022-12-11T08:51:29;1.70;99.90
25568;DHT22;13455;51.480;7.594;2022-12-11T08:53:56;1.70;99.90
25568;DHT22;13455;51.480;7.594;2022-12-11T08:56:23;1.70;99.90
25568;DHT22;13455;51.480;7.594;2022-12-11T08:58:50;1.70;99.90
25568;DHT22;13455;51.480;7.594;2022-12-11T09:01:21;1.80;99.90
25568;DHT22;13455;51.480;7.594;2022-12-11T09:03:48;1.90;99.90
25568;DHT22;13455;51.480;7.594;2022-12-11T09:06:16;1.70;99.90
25568;DHT22;13455;51.480;7.594;2022-12-11T09:08:44;1.80;99.90
25568;DHT22;13455;51.480;7.594;2022-12-11T09:11:12;1.90;99.90
25568;DHT22;13455;51.480;7.594;2022-12-11T09:13:39;1.80;99.90
25568;DHT22;13455;51.480;7.594;2022-12-11T09:16:10;2.00;99.90
25568;DHT22;13455;51.480;7.594;2022-12-11T09:18:36;1.90;99.90
25568;DHT22;13455;51.480;7.594;2022-12-11T09:21:04;1.90;99.90
25568;DHT22;13455;51.480;7.594;2022-12-11T09:23:31;1.80;99.90
25568;DHT22;13455;51.480;7.594;2022-12-11T09:25:56;1.80;99.90
25568;DHT22;13455;51.480;7.594;2022-12-11T09:28:22;1.90;99.90
25568;DHT22;13455;51.480;7.594;2022-12-11T09:30:48;1.80;99.90
25568;DHT22;13455;51.480;7.594;2022-12-11T09:33:14;1.80;99.90
25568;DHT22;13455;51.480;7.594;2022-12-11T09:35:40;1.90;99.90
25568;DHT22;13455;51.480;7.594;2022-12-11T09:38:06;1.90;99.90
25568;DHT22;13455;51.480;7.594;2022-12-11T09:40:32;1.80;99.90
25568;DHT22;13455;51.480;7.594;2022-12-11T09:43:04;1.80;99.90
25568;DHT22;13455;51.480;7.594;2022-12-11T09:45:30;1.60;99.90
25568;DHT22;13455;51.480;7.594;2022-12-11T09:47:56;1.60;99.90
25568;DHT22;13455;51.480;7.594;2022-12-11T09:50:31;1.70;99.90
25568;DHT22;13455;51.480;7.594;2022-12-11T09:56:13;1.70;99.90
25568;DHT22;13455;51.480;7.594;2022-12-11T10:04:16;1.70;99.90
25568;DHT22;13455;51.480;7.594;2022-12-11T10:09:49;1.80;99.90
25568;DHT22;13455;51.480;7.594;2022-12-11T10:15:19;1.80;99.90
25568;DHT22;13455;51.480;7.594;2022-12-11T10:17:47;1.80;99.90
25568;DHT22;13455;51.480;7.594;2022-12-11T10:20:38;1.80;99.90
25568;DHT22;13455;51.480;7.594;2022-12-11T10:23:11;1.70;99.90
25568;DHT22;13455;51.480;7.594;2022-12-11T10:25:45;1.80;99.90
25568;DHT22;13455;51.480;7.594;2022-12-11T10:28:15;1.80;99.90
25568;DHT22;13455;51.480;7.594;2022-12-11T10:34:13;1.80;99.90
25568;DHT22;13455;51.480;7.594;2022-12-11T10:36:41;1.80;99.90
25568;DHT22;13455;51.480;7.594;2022-12-11T10:39:18;1.80;99.90
25568;DHT22;13455;51.480;7.594;2022-12-11T10:41:49;1.80;99.90
25568;DHT22;13455;51.480;7.594;2022-12-11T10:46:47;1.90;99.90
25568;DHT22;13455;51.480;7.594;2022-12-11T10:49:28;2.00;99.90
25568;DHT22;13455;51.480;7.594;2022-12-11T10:51:55;1.80;99.90
25568;DHT22;13455;51.480;7.594;2022-12-11T10:56:53;1.90;99.90
25568;DHT22;13455;51.480;7.594;2022-12-11T10:59:28;1.80;99.90
25568;DHT22;13455;51.480;7.594;2022-12-11T11:01:56;1.80;99.90
25568;DHT22;13455;51.480;7.594;2022-12-11T11:04:41;1.80;99.90
25568;DHT22;13455;51.480;7.594;2022-12-11T11:09:39;1.80;99.90
25568;DHT22;13455;51.480;7.594;2022-12-11T11:12:23;1.80;99.90
25568;DHT22;13455;51.480;7.594;2022-12-11T11:15:05;1.80;99.90
25568;DHT22;13455;51.480;7.594;2022-12-11T11:17:39;1.80;99.90
25568;DHT22;13455;51.480;7.594;2022-12-11T11:20:12;1.90;99.90
25568;DHT22;13455;51.480;7.594;2022-12-11T11:22:52;1.90;99.90
25568;DHT22;13455;51.480;7.594;2022-12-11T11:25:23;1.80;99.90
25568;DHT22;13455;51.480;7.594;2022-12-11T11:32:50;1.80;99.90
25568;DHT22;13455;51.480;7.594;2022-12-11T11:35:24;1.80;99.90
25568;DHT22;13455;51.480;7.594;2022-12-11T11:38:03;1.80;99.90
25568;DHT22;13455;51.480;7.594;2022-12-11T11:40:36;1.80;99.90
25568;DHT22;13455;51.480;7.594;2022-12-11T11:48:48;1.80;99.90
25568;DHT22;13455;51.480;7.594;2022-12-11T11:51:33;1.80;99.90
25568;DHT22;13455;51.480;7.594;2022-12-11T11:54:02;1.80;99.90
25568;DHT22;13455;51.480;7.594;2022-12-11T11:56:34;1.80;99.90
25568;DHT22;13455;51.480;7.594;2022-12-11T11:59:17;1.80;99.90
25568;DHT22;13455;51.480;7.594;2022-12-11T12:01:45;1.80;99.90
25568;DHT22;13455;51.480;7.594;2022-12-11T12:04:11;1.80;99.90
25568;DHT22;13455;51.480;7.594;2022-12-11T12:06:56;0.90;99.90
25568;DHT22;13455;51.480;7.594;2022-12-11T12:12:36;1.80;99.90
25568;DHT22;13455;51.480;7.594;2022-12-11T12:17:52;1.70;99.90
25568;DHT22;13455;51.480;7.594;2022-12-11T12:20:42;1.70;99.90
25568;DHT22;13455;51.480;7.594;2022-12-11T12:25:58;1.80;99.90
25568;DHT22;13455;51.480;7.594;2022-12-11T12:42:06;1.80;99.90
25568;DHT22;13455;51.480;7.594;2022-12-11T12:47:40;1.90;99.90
25568;DHT22;13455;51.480;7.594;2022-12-11T12:50:16;2.00;99.90
25568;DHT22;13455;51.480;7.594;2022-12-11T12:52:42;2.00;99.90
25568;DHT22;13455;51.480;7.594;2022-12-11T12:57:58;2.00;99.90
25568;DHT22;13455;51.480;7.594;2022-12-11T13:00:28;2.40;99.90
25568;DHT22;13455;51.480;7.594;2022-12-11T13:02:54;2.00;99.90
25568;DHT22;13455;51.480;7.594;2022-12-11T13:05:26;2.00;99.90
25568;DHT22;13455;51.480;7.594;2022-12-11T13:07:57;2.70;99.90
25568;DHT22;13455;51.480;7.594;2022-12-11T13:12:49;2.00;99.90
25568;DHT22;13455;51.480;7.594;2022-12-11T13:17:59;2.00;99.90
25568;DHT22;13455;51.480;7.594;2022-12-11T13:20:29;2.40;99.90
25568;DHT22;13455;51.480;7.594;2022-12-11T13:23:09;2.00;99.90
25568;DHT22;13455;51.480;7.594;2022-12-11T13:25:56;2.00;99.90
25568;DHT22;13455;51.480;7.594;2022-12-11T13:33:36;2.10;99.90
25568;DHT22;13455;51.480;7.594;2022-12-11T13:38:35;2.00;99.90
25568;DHT22;13455;51.480;7.594;2022-12-11T13:41:03;2.10;99.90
25568;DHT22;13455;51.480;7.594;2022-12-11T13:43:34;2.10;99.90
25568;DHT22;13455;51.480;7.594;2022-12-11T13:46:02;2.20;99.90
25568;DHT22;13455;51.480;7.594;2022-12-11T13:50:58;2.10;99.90
25568;DHT22;13455;51.480;7.594;2022-12-11T13:53:24;2.20;99.90
25568;DHT22;13455;51.480;7.594;2022-12-11T13:56:12;2.20;99.90
25568;DHT22;13455;51.480;7.594;2022-12-11T13:58:40;2.20;99.90
25568;DHT22;13455;51.480;7.594;2022-12-11T14:01:20;2.10;99.90
25568;DHT22;13455;51.480;7.594;2022-12-11T14:04:01;2.10;99.90
25568;DHT22;13455;51.480;7.594;2022-12-11T14:06:29;2.10;99.90
25568;DHT22;13455;51.480;7.594;2022-12-11T14:08:59;2.10;99.90
25568;DHT22;13455;51.480;7.594;2022-12-11T14:11:40;2.10;99.90
25568;DHT22;13455;51.480;7.594;2022-12-11T14:14:23;2.10;99.90
25568;DHT22;13455;51.480;7.594;2022-12-11T14:16:50;2.10;99.90
25568;DHT22;13455;51.480;7.594;2022-12-11T14:19:21;2.10;99.90
25568;DHT22;13455;51.480;7.594;2022-12-11T14:22:02;2.10;99.90
25568;DHT22;13455;51.480;7.594;2022-12-11T14:24:29;2.10;99.90
25568;DHT22;13455;51.480;7.594;2022-12-11T14:26:55;2.20;99.90
25568;DHT22;13455;51.480;7.594;2022-12-11T14:29:32;2.20;99.90
25568;DHT22;13455;51.480;7.594;2022-12-11T14:32:02;2.20;99.90
25568;DHT22;13455;51.480;7.594;2022-12-11T14:34:33;2.20;99.90
25568;DHT22;13455;51.480;7.594;2022-12-11T14:37:00;2.20;99.90
25568;DHT22;13455;51.480;7.594;2022-12-11T14:39:47;2.20;99.90
25568;DHT22;13455;51.480;7.594;2022-12-11T14:42:19;2.20;99.90
25568;DHT22;13455;51.480;7.594;2022-12-11T14:45:06;2.10;99.90
25568;DHT22;13455;51.480;7.594;2022-12-11T14:47:40;2.10;99.90
25568;DHT22;13455;51.480;7.594;2022-12-11T14:50:25;2.20;99.90
25568;DHT22;13455;51.480;7.594;2022-12-11T14:52:55;2.20;99.90
25568;DHT22;13455;51.480;7.594;2022-12-11T14:55:26;2.20;99.90
25568;DHT22;13455;51.480;7.594;2022-12-11T14:57:57;2.20;99.90
25568;DHT22;13455;51.480;7.594;2022-12-11T15:00:30;2.20;99.90
25568;DHT22;13455;51.480;7.594;2022-12-11T15:06:20;2.20;99.90
25568;DHT22;13455;51.480;7.594;2022-12-11T15:08:48;2.20;99.90
25568;DHT22;13455;51.480;7.594;2022-12-11T15:11:17;2.40;99.90
25568;DHT22;13455;51.480;7.594;2022-12-11T15:13:56;2.20;99.90
25568;DHT22;13455;51.480;7.594;2022-12-11T15:16:24;2.20;99.90
25568;DHT22;13455;51.480;7.594;2022-12-11T15:18:53;2.20;99.90
25568;DHT22;13455;51.480;7.594;2022-12-11T15:21:30;2.20;99.90
25568;DHT22;13455;51.480;7.594;2022-12-11T15:23:58;2.10;99.90
25568;DHT22;13455;51.480;7.594;2022-12-11T15:26:43;2.20;99.90
25568;DHT22;13455;51.480;7.594;2022-12-11T15:29:41;2.30;99.90
25568;DHT22;13455;51.480;7.594;2022-12-11T15:34:50;2.40;99.90
25568;DHT22;13455;51.480;7.594;2022-12-11T15:37:20;2.30;99.90
25568;DHT22;13455;51.480;7.594;2022-12-11T15:39:47;2.20;99.90
25568;DHT22;13455;51.480;7.594;2022-12-11T15:42:17;2.10;99.90
25568;DHT22;13455;51.480;7.594;2022-12-11T15:44:45;2.70;99.90
25568;DHT22;13455;51.480;7.594;2022-12-11T15:47:12;2.40;99.90
25568;DHT22;13455;51.480;7.594;2022-12-11T15:49:38;2.30;99.90
25568;DHT22;13455;51.480;7.594;2022-12-11T15:52:04;2.20;99.90
25568;DHT22;13455;51.480;7.594;2022-12-11T15:54:29;2.20;99.90
25568;DHT22;13455;51.480;7.594;2022-12-11T15:56:55;2.40;99.90
25568;DHT22;13455;51.480;7.594;2022-12-11T15:59:21;2.60;99.90
25568;DHT22;13455;51.480;7.594;2022-12-11T16:01:47;2.30;99.90
25568;DHT22;13455;51.480;7.594;2022-12-11T16:04:13;2.90;99.90
25568;DHT22;13455;51.480;7.594;2022-12-11T16:06:38;2.30;99.90
25568;DHT22;13455;51.480;7.594;2022-12-11T16:09:09;2.20;99.90
25568;DHT22;13455;51.480;7.594;2022-12-11T16:11:35;2.20;99.90
25568;DHT22;13455;51.480;7.594;2022-12-11T16:14:00;2.20;99.90
25568;DHT22;13455;51.480;7.594;2022-12-11T16:16:29;2.20;99.90
25568;DHT22;13455;51.480;7.594;2022-12-11T16:18:55;2.30;99.90
25568;DHT22;13455;51.480;7.594;2022-12-11T16:21:20;2.20;99.90
25568;DHT22;13455;51.480;7.594;2022-12-11T16:23:46;2.20;99.90
25568;DHT22;13455;51.480;7.594;2022-12-11T16:26:11;2.90;99.90
25568;DHT22;13455;51.480;7.594;2022-12-11T16:28:38;2.30;99.90
25568;DHT22;13455;51.480;7.594;2022-12-11T16:31:09;2.10;99.90
25568;DHT22;13455;51.480;7.594;2022-12-11T16:33:35;2.30;99.90
25568;DHT22;13455;51.480;7.594;2022-12-11T16:36:01;2.20;99.90
25568;DHT22;13455;51.480;7.594;2022-12-11T16:38:26;2.20;99.90
25568;DHT22;13455;51.480;7.594;2022-12-11T16:40:59;2.60;99.90
25568;DHT22;13455;51.480;7.594;2022-12-11T16:43:25;2.30;99.90
25568;DHT22;13455;51.480;7.594;2022-12-11T16:45:53;2.30;99.90
25568;DHT22;13455;51.480;7.594;2022-12-11T16:48:20;2.20;99.90
25568;DHT22;13455;51.480;7.594;2022-12-11T16:50:45;2.20;99.90
25568;DHT22;13455;51.480;7.594;2022-12-11T16:53:11;2.30;99.90
25568;DHT22;13455;51.480;7.594;2022-12-11T16:55:39;2.20;99.90
25568;DHT22;13455;51.480;7.594;2022-12-11T16:58:05;2.30;99.90
25568;DHT22;13455;51.480;7.594;2022-12-11T17:00:31;2.30;99.90
25568;DHT22;13455;51.480;7.594;2022-12-11T17:02:57;2.20;99.90
25568;DHT22;13455;51.480;7.594;2022-12-11T17:05:22;2.20;99.90
25568;DHT22;13455;51.480;7.594;2022-12-11T17:07:49;2.20;99.90
25568;DHT22;13455;51.480;7.594;2022-12-11T17:10:14;2.20;99.90
25568;DHT22;13455;51.480;7.594;2022-12-11T17:12:40;2.40;99.90
25568;DHT22;13455;51.480;7.594;2022-12-11T17:15:06;2.20;99.90
25568;DHT22;13455;51.480;7.594;2022-12-11T17:17:32;2.20;99.90
25568;DHT22;13455;51.480;7.594;2022-12-11T17:19:57;2.20;99.90
25568;DHT22;13455;51.480;7.594;2022-12-11T17:22:23;2.20;99.90
25568;DHT22;13455;51.480;7.594;2022-12-11T17:24:49;2.20;99.90
25568;DHT22;13455;51.480;7.594;2022-12-11T17:27:15;2.40;99.90
25568;DHT22;13455;51.480;7.594;2022-12-11T17:29:41;2.20;99.90
25568;DHT22;13455;51.480;7.594;2022-12-11T17:32:06;2.20;99.90
25568;DHT22;13455;51.480;7.594;2022-12-11T17:34:32;2.10;99.90
25568;DHT22;13455;51.480;7.594;2022-12-11T17:36:57;2.10;99.90
25568;DHT22;13455;51.480;7.594;2022-12-11T17:39:23;2.40;99.90
25568;DHT22;13455;51.480;7.594;2022-12-11T17:41:49;2.20;99.90
25568;DHT22;13455;51.480;7.594;2022-12-11T17:44:14;2.30;99.90
25568;DHT22;13455;51.480;7.594;2022-12-11T17:46:40;2.10;99.90
25568;DHT22;13455;51.480;7.594;2022-12-11T17:49:05;2.10;99.90
25568;DHT22;13455;51.480;7.594;2022-12-11T17:51:31;2.20;99.90
25568;DHT22;13455;51.480;7.594;2022-12-11T17:53:57;2.30;99.90
25568;DHT22;13455;51.480;7.594;2022-12-11T17:56:23;2.10;99.90
25568;DHT22;13455;51.480;7.594;2022-12-11T17:58:49;2.10;99.90
25568;DHT22;13455;51.480;7.594;2022-12-11T18:01:15;2.20;99.90
25568;DHT22;13455;51.480;7.594;2022-12-11T18:03:41;2.10;99.90
25568;DHT22;13455;51.480;7.594;2022-12-11T18:06:13;2.10;99.90
25568;DHT22;13455;51.480;7.594;2022-12-11T18:08:39;2.00;99.90
25568;DHT22;13455;51.480;7.594;2022-12-11T18:11:10;2.10;99.90
25568;DHT22;13455;51.480;7.594;2022-12-11T18:13:36;2.00;99.90
25568;DHT22;13455;51.480;7.594;2022-12-11T18:16:14;2.10;99.90
25568;DHT22;13455;51.480;7.594;2022-12-11T18:18:41;2.10;99.90
25568;DHT22;13455;51.480;7.594;2022-12-11T18:21:15;2.10;99.90
25568;DHT22;13455;51.480;7.594;2022-12-11T18:23:41;1.80;99.90